Portsmouth, VA (23707)

7:27 AM EDT on September 03, 2015 (GMT -0400)
West Cradock | | Change Station
CLOSE
Current Station
Personal Weather Station
Location: Portsmouth, VA
Elevation: 13 ft
Nearby Weather Stations

Elev 13 ft 36.80 °N, 76.33 °W | Updated 23 seconds ago

Partly Cloudy
Partly Cloudy
69.6 °F
Feels Like 69.6 °F
N
3.0
Wind Variable Wind from West
Gusts 5.0 mph

Today
High -- | Low -- °F
--% Chance of Precip.
Yesterday
High -- | Low -- °F
Precip. -- in
6:37 AM 7:31 PM
Waning Gibbous, 71% visible
Pressure 29.93 in
Visibility 6.0 miles
Clouds Few 13000 ft
Few 30000 ft
Dew Point 69 °F
Humidity 99%
Rainfall 0.00 in
Snow Depth Not available.
UV 0 out of 12
Pollen 9.50 out of 12
Air Quality Not available.
Flu Activity Not available.
METAR KNGU 031059Z 26004KT 6SM BR FEW130 FEW300 23/21 A2993 RMK AO2 SLP134 T02280206
Pressure 29.93 in
Visibility 6.0 miles
Clouds Few 13000 ft
Few 30000 ft
Dew Point 69 °F
Humidity 99%
Rainfall 0.00 in
Snow Depth Not available.
UV 0 out of 12
Pollen 9.50 out of 12
Air Quality Not available.
Flu Activity Not available.
METAR KNGU 031059Z 26004KT 6SM BR FEW130 FEW300 23/21 A2993 RMK AO2 SLP134 T02280206

10-Day Weather Forecast

×

Almanac

Astronomy

Sep. 03, 2015 Rise Set
Actual Time
Civil Twilight
Nautical Twilight
Astronomical Twilight
Moon
Length of Visible Light
Length of Day
Tomorrow will be .
, % of the Moon is Illuminated

Today's Extremes

State Highs State Lows

Community

WunderPhotos

Upload Photos

1,851,933 photos uploaded!

WunderBlogs® & News

Nearby

Air Quality

  Air Quality AQ Index Pollutant
Not available.

Snow Depth

Station Depth Elevation

Earthquake Activity

City Distance Mag. Time & Date
Minimum magnitude displayed is 2.5.

Coastal Water Temperatures

Place Temperature

Stations

Nearby Weather Stations

Station Location Temp. Windchill Dew Point Humidity Wind Precip. Elev Updated Type